Wednesday, February 10, 2016, 7:20 PM EST

KDYL, Doylestown Airport

Location: Doylestown, PA, United States Lat: 40.333
Local Time: 7:20 PM EST ( 0:20 GMT) Lon: -75.117
Time Zone: US/Eastern Elev: 393 ft

Show me the last for .
Show Decoded

2016-02-10 18:54 METAR KDYL 102354Z AUTO 27006KT 10SM SCT095 M02/M10 A2976 RMK AO2 SLP085
                 T10221100 10000 21028 51023 =
2016-02-10 17:54 METAR KDYL 102254Z AUTO 27007G16KT 10SM OVC044 M02/M10 A2974 RMK AO2 SLP080
                 T10171100 =
2016-02-10 16:54 METAR KDYL 102154Z AUTO 28011KT 10SM BKN041 M01/M09 A2971 RMK AO2 SLP069
                 T10111094 =
2016-02-10 15:54 METAR KDYL 102054Z AUTO 29012G18KT 10SM OVC041 M01/M09 A2969 RMK AO2 SLP061
                 T10061089 53010 =
2016-02-10 14:54 METAR KDYL 101954Z AUTO 30009G19KT 10SM OVC040 00/M08 A2967 RMK AO2 SLP055
                 T00001078 =
2016-02-10 13:54 METAR KDYL 101854Z AUTO 26010G20KT 10SM OVC039 00/M08 A2966 RMK AO2 SLP051
                 T00001083 =
2016-02-10 12:54 METAR KDYL 101754Z AUTO 28011G20KT 10SM OVC037 00/M07 A2966 RMK AO2 SLP051 60001
                 I6001 T00001072 10006 21022 58002 =
2016-02-10 11:54 METAR KDYL 101654Z AUTO 28013G21KT 10SM OVC041 00/M07 A2967 RMK AO2 SLP053
                 T00001067 =
2016-02-10 10:54 METAR KDYL 101554Z AUTO 28010G18KT 10SM FEW029 FEW049 00/M06 A2967 RMK AO2
                 SLP053 P0001 I1001 T00001061 =
2016-02-10 09:54 METAR KDYL 101454Z AUTO 25006KT 10SM SCT050 SCT060 M02/M04 A2967 RMK AO2 SNE15
                 SLP054 P0000 60000 T10171044 51008 =
2016-02-10 09:16 METAR KDYL 101416Z AUTO 26005KT 8SM BKN032 OVC042 M02/M04 A2967 RMK AO2 SNE15
                 P0000 T10221039 =
2016-02-10 08:54 METAR KDYL 101354Z AUTO 27007KT 4SM -SN BR BKN027 OVC037 M02/M04 A2966 RMK AO2
                 SNB04 SLP053 P0000 T10221039 =
2016-02-10 08:50 METAR KDYL 101350Z AUTO 27007KT 4SM -SN BR BKN029 OVC037 M02/M04 A2966 RMK AO2
                 SNB04 P0000 =
2016-02-10 07:54 METAR KDYL 101254Z AUTO 26006KT 7SM BKN039 OVC047 M02/M03 A2964 RMK AO2 SNE26
                 SLP046 P0000 T10221033 =
2016-02-10 07:39 METAR KDYL 101239Z AUTO 26005KT 5SM BR OVC034 M02/M03 A2964 RMK AO2 SNE26 P0000
                 T10221028 =
2016-02-10 07:11 METAR KDYL 101211Z AUTO 25005KT 3SM -SN BR FEW008 OVC016 M02/M03 A2963 RMK AO2
                 P0000 T10221028 =
2016-02-10 06:54 METAR KDYL 101154Z AUTO 26005KT 2SM -SN BR FEW008 OVC012 M02/M03 A2962 RMK AO2
                 SLP039 P0000 60000 70002 T10221028 11017 21022 53014 =
2016-02-10 06:43 METAR KDYL 101143Z AUTO 25004KT 2SM -SN BR FEW008 OVC013 M02/M03 A2962 RMK AO2
                 P0000 T10221028 =
2016-02-10 06:19 METAR KDYL 101119Z AUTO 25005KT 2 1/2SM -SN BR FEW006 OVC019 M02/M03 A2961 RMK
                 AO2 P0000 T10221028 =
2016-02-10 06:12 METAR KDYL 101112Z AUTO 25005KT 3SM -SN BR FEW005 OVC021 M02/M03 A2961 RMK AO2
                 P0000 T10221028 =
2016-02-10 05:54 METAR KDYL 101054Z AUTO 25005KT 3SM -SN BR OVC024 M02/M03 A2961 RMK AO2 SLP034
                 P0000 T10221028 =
2016-02-10 05:47 METAR KDYL 101047Z AUTO 25004KT 3SM -SN BR OVC026 M02/M03 A2960 RMK AO2 P0000
                 T10221028 =
2016-02-10 04:54 METAR KDYL 100954Z AUTO 25005KT 4SM -SN BR OVC032 M02/M03 A2959 RMK AO2 SNB22
                 SLP029 P0000 T10221028 =
2016-02-10 03:54 METAR KDYL 100854Z AUTO 25004KT 6SM BR OVC070 M02/M03 A2958 RMK AO2 SLP025 60000
                 T10221028 55001 =
2016-02-10 03:14 METAR KDYL 100814Z AUTO 23004KT 6SM BR FEW006 FEW024 SCT085 M02/M03 A2958 RMK
                 AO2 T10221028 =
2016-02-10 02:54 METAR KDYL 100754Z AUTO 25004KT 6SM BR SCT005 BKN023 M02/M03 A2958 RMK AO2
                 SNB02E13 SLP024 P0000 T10221028 =
2016-02-10 02:47 METAR KDYL 100747Z AUTO 24004KT 5SM BR SCT005 OVC023 M02/M02 A2958 RMK AO2
                 SNB02E13 P0000 T10221022 =
2016-02-10 02:08 METAR KDYL 100708Z AUTO 23005KT 5SM -SN BR BKN007 OVC024 M02/M02 A2958 RMK AO2
                 SNB02 P0000 T10171022 =
2016-02-10 01:54 METAR KDYL 100654Z AUTO 23004KT 6SM BR FEW007 OVC024 M02/M02 A2958 RMK AO2
                 SLP026 T10171022 =
2016-02-10 01:43 METAR KDYL 100643Z AUTO 21003KT 7SM SCT007 SCT013 OVC022 M02/M02 A2959 RMK AO2
                 T10171022 =
2016-02-10 01:11 METAR KDYL 100611Z AUTO 24003KT 7SM BKN008 OVC013 M02/M02 A2959 RMK AO2 CIG
                 006V010 T10171022 =
2016-02-10 00:54 METAR KDYL 100554Z AUTO 22004KT 6SM BR FEW004 OVC013 M02/M02 A2959 RMK AO2
                 SLP026 60000 T10171022 11011 21017 56005 =
2016-02-10 00:45 METAR KDYL 100545Z AUTO 23003KT 6SM BR SCT004 OVC013 M01/M02 A2958 RMK AO2
                 T10111017 =
2016-02-09 23:54 METAR KDYL 100454Z AUTO 24003KT 5SM BR OVC004 M01/M02 A2959 RMK AO2 SLP027
                 T10111017 410061033 =
2016-02-09 23:45 METAR KDYL 100445Z AUTO 00000KT 5SM BR OVC004 M01/M02 A2959 RMK AO2 CIG 003V007
                 T10111017 =
2016-02-09 22:54 METAR KDYL 100354Z AUTO 00000KT 4SM BR OVC008 M02/M02 A2959 RMK AO2 SNE34 CIG
                 005V011 SLP028 P0000 T10171017 =
2016-02-09 22:41 METAR KDYL 100341Z AUTO 00000KT 3SM BR FEW003 BKN008 OVC014 M02/M02 A2959 RMK
                 AO2 SNE34 P0000 T10171017 =
2016-02-09 22:31 METAR KDYL 100331Z AUTO 00000KT 3SM -SN BR FEW003 BKN015 OVC028 M02/M02 A2959
                 RMK AO2 P0000 T10171017 =
2016-02-09 22:11 METAR KDYL 100311Z AUTO 00000KT 3SM -SN BR SCT003 BKN009 OVC014 M02/M02 A2960
                 RMK AO2 P0000 T10171017 =
2016-02-09 21:54 METAR KDYL 100254Z AUTO 00000KT 2SM -SN BR OVC003 M02/M02 A2960 RMK AO2 CIG
                 002V006 SLP032 P0000 60000 T10171017 53002 =
2016-02-09 21:38 METAR KDYL 100238Z AUTO 00000KT 1 3/4SM -SN BR OVC004 M02/M02 A2960 RMK AO2 CIG
                 003V008 P0000 T10171017 =
2016-02-09 21:32 METAR KDYL 100232Z AUTO 00000KT 2SM -SN BR OVC006 M01/M02 A2960 RMK AO2 CIG
                 004V009 P0000 T10111017 =
2016-02-09 21:17 METAR KDYL 100217Z AUTO 00000KT 3SM -SN BR OVC007 M01/M02 A2960 RMK AO2 CIG
                 004V009 P0000 T10111017 =
2016-02-09 21:10 METAR KDYL 100210Z AUTO 00000KT 2 1/2SM -SN BR OVC006 M02/M02 A2960 RMK AO2 CIG
                 004V009 P0000 T10171017 =
2016-02-09 20:54 METAR KDYL 100154Z AUTO 00000KT 2SM -SN BR OVC004 M01/M02 A2960 RMK AO2 SLP031
                 P0000 T10111017 =
2016-02-09 20:43 METAR KDYL 100143Z AUTO 00000KT 1 1/2SM -SN BR BKN004 OVC012 M01/M02 A2960 RMK
                 AO2 P0000 T10111017 =
2016-02-09 20:33 METAR KDYL 100133Z AUTO 00000KT 1 1/2SM -SN BR SCT004 OVC012 M01/M02 A2960 RMK
                 AO2 P0000 T10111017 =
2016-02-09 20:10 METAR KDYL 100110Z AUTO 00000KT 2SM -SN BR FEW004 OVC014 M01/M02 A2960 RMK AO2
                 P0000 T10111017 =
2016-02-09 19:54 METAR KDYL 100054Z AUTO 00000KT 1 3/4SM -SN BR FEW004 OVC011 M01/M02 A2960 RMK
                 AO2 SLP030 P0000 T10111017 =
2016-02-09 19:46 METAR KDYL 100046Z AUTO 00000KT 1 3/4SM -SN BR FEW004 OVC011 M01/M02 A2960 RMK
                 AO2 P0000 T10111017 =
2016-02-09 19:38 METAR KDYL 100038Z AUTO 00000KT 2SM -SN BR FEW004 OVC011 M02/M02 A2959 RMK AO2
                 P0000 T10171017 =

Support USWX by starting your Amazon purchase here.